sensor_id;sensor_type;location;lat;lon;timestamp;temperature;humidity
18450;DHT22;9354;50.194;7.690;2023-04-24T00:02:02;10.40;99.90
18450;DHT22;9354;50.194;7.690;2023-04-24T00:04:31;10.40;99.90
18450;DHT22;9354;50.194;7.690;2023-04-24T00:06:58;10.40;99.90
18450;DHT22;9354;50.194;7.690;2023-04-24T00:09:26;10.40;99.90
18450;DHT22;9354;50.194;7.690;2023-04-24T00:11:53;10.40;99.90
18450;DHT22;9354;50.194;7.690;2023-04-24T00:14:22;10.50;99.90
18450;DHT22;9354;50.194;7.690;2023-04-24T00:16:49;10.40;99.90
18450;DHT22;9354;50.194;7.690;2023-04-24T00:19:16;10.50;99.90
18450;DHT22;9354;50.194;7.690;2023-04-24T00:21:48;10.40;99.90
18450;DHT22;9354;50.194;7.690;2023-04-24T00:24:16;10.50;99.90
18450;DHT22;9354;50.194;7.690;2023-04-24T00:26:44;10.50;99.90
18450;DHT22;9354;50.194;7.690;2023-04-24T00:29:11;10.40;99.90
18450;DHT22;9354;50.194;7.690;2023-04-24T00:31:39;10.40;99.90
18450;DHT22;9354;50.194;7.690;2023-04-24T00:34:06;10.30;99.90
18450;DHT22;9354;50.194;7.690;2023-04-24T00:36:34;10.30;99.90
18450;DHT22;9354;50.194;7.690;2023-04-24T00:39:03;10.20;99.90
18450;DHT22;9354;50.194;7.690;2023-04-24T00:41:30;10.20;99.90
18450;DHT22;9354;50.194;7.690;2023-04-24T00:43:58;10.20;99.90
18450;DHT22;9354;50.194;7.690;2023-04-24T00:46:25;10.20;99.90
18450;DHT22;9354;50.194;7.690;2023-04-24T00:48:52;10.20;99.90
18450;DHT22;9354;50.194;7.690;2023-04-24T00:51:20;10.20;99.90
18450;DHT22;9354;50.194;7.690;2023-04-24T00:53:47;10.20;99.90
18450;DHT22;9354;50.194;7.690;2023-04-24T00:56:16;10.30;99.90
18450;DHT22;9354;50.194;7.690;2023-04-24T00:58:44;10.30;99.90
18450;DHT22;9354;50.194;7.690;2023-04-24T01:01:12;10.40;99.90
18450;DHT22;9354;50.194;7.690;2023-04-24T01:03:40;10.40;99.90
18450;DHT22;9354;50.194;7.690;2023-04-24T01:06:08;10.40;99.90
18450;DHT22;9354;50.194;7.690;2023-04-24T01:08:36;10.50;99.90
18450;DHT22;9354;50.194;7.690;2023-04-24T01:11:05;10.50;99.90
18450;DHT22;9354;50.194;7.690;2023-04-24T01:13:34;10.60;99.90
18450;DHT22;9354;50.194;7.690;2023-04-24T01:16:02;10.50;99.90
18450;DHT22;9354;50.194;7.690;2023-04-24T01:18:29;10.60;99.90
18450;DHT22;9354;50.194;7.690;2023-04-24T01:20:58;10.60;99.90
18450;DHT22;9354;50.194;7.690;2023-04-24T01:23:27;10.70;99.90
18450;DHT22;9354;50.194;7.690;2023-04-24T01:25:55;10.70;99.90
18450;DHT22;9354;50.194;7.690;2023-04-24T01:28:22;10.60;99.90
18450;DHT22;9354;50.194;7.690;2023-04-24T01:30:50;10.70;99.90
18450;DHT22;9354;50.194;7.690;2023-04-24T01:33:18;10.60;99.90
18450;DHT22;9354;50.194;7.690;2023-04-24T01:35:46;10.60;99.90
18450;DHT22;9354;50.194;7.690;2023-04-24T01:38:14;10.60;99.90
18450;DHT22;9354;50.194;7.690;2023-04-24T01:40:43;10.60;99.90
18450;DHT22;9354;50.194;7.690;2023-04-24T01:43:11;10.60;99.90
18450;DHT22;9354;50.194;7.690;2023-04-24T01:45:39;10.60;99.90
18450;DHT22;9354;50.194;7.690;2023-04-24T01:48:06;10.60;99.90
18450;DHT22;9354;50.194;7.690;2023-04-24T01:50:34;10.50;99.90
18450;DHT22;9354;50.194;7.690;2023-04-24T01:53:01;10.50;99.90
18450;DHT22;9354;50.194;7.690;2023-04-24T01:55:29;10.50;99.90
18450;DHT22;9354;50.194;7.690;2023-04-24T01:57:59;10.50;99.90
18450;DHT22;9354;50.194;7.690;2023-04-24T02:00:28;10.50;99.90
18450;DHT22;9354;50.194;7.690;2023-04-24T02:02:55;10.50;99.90
18450;DHT22;9354;50.194;7.690;2023-04-24T02:05:23;10.40;99.90
18450;DHT22;9354;50.194;7.690;2023-04-24T02:07:50;10.40;99.90
18450;DHT22;9354;50.194;7.690;2023-04-24T02:10:17;10.40;99.90
18450;DHT22;9354;50.194;7.690;2023-04-24T02:12:45;10.40;99.90
18450;DHT22;9354;50.194;7.690;2023-04-24T02:15:14;10.30;99.90
18450;DHT22;9354;50.194;7.690;2023-04-24T02:17:41;10.30;99.90
18450;DHT22;9354;50.194;7.690;2023-04-24T02:20:09;10.30;99.90
18450;DHT22;9354;50.194;7.690;2023-04-24T02:22:36;10.30;99.90
18450;DHT22;9354;50.194;7.690;2023-04-24T02:25:04;10.30;99.90
18450;DHT22;9354;50.194;7.690;2023-04-24T02:27:32;10.30;99.90
18450;DHT22;9354;50.194;7.690;2023-04-24T02:29:59;10.30;99.90
18450;DHT22;9354;50.194;7.690;2023-04-24T02:32:28;10.20;99.90
18450;DHT22;9354;50.194;7.690;2023-04-24T02:34:56;10.20;99.90
18450;DHT22;9354;50.194;7.690;2023-04-24T02:37:24;10.20;99.90
18450;DHT22;9354;50.194;7.690;2023-04-24T02:39:51;10.20;99.90
18450;DHT22;9354;50.194;7.690;2023-04-24T02:42:18;10.20;99.90
18450;DHT22;9354;50.194;7.690;2023-04-24T02:44:46;10.20;99.90
18450;DHT22;9354;50.194;7.690;2023-04-24T02:47:14;10.20;99.90
18450;DHT22;9354;50.194;7.690;2023-04-24T02:49:42;10.10;99.90
18450;DHT22;9354;50.194;7.690;2023-04-24T02:52:10;10.10;99.90
18450;DHT22;9354;50.194;7.690;2023-04-24T02:54:37;10.10;99.90
18450;DHT22;9354;50.194;7.690;2023-04-24T02:57:04;10.10;99.90
18450;DHT22;9354;50.194;7.690;2023-04-24T02:59:32;10.00;99.90
18450;DHT22;9354;50.194;7.690;2023-04-24T03:02:00;10.00;99.90
18450;DHT22;9354;50.194;7.690;2023-04-24T03:04:27;10.00;99.90
18450;DHT22;9354;50.194;7.690;2023-04-24T03:06:56;9.90;99.90
18450;DHT22;9354;50.194;7.690;2023-04-24T03:09:23;9.90;99.90
18450;DHT22;9354;50.194;7.690;2023-04-24T03:11:51;9.80;99.90
18450;DHT22;9354;50.194;7.690;2023-04-24T03:14:18;9.80;99.90
18450;DHT22;9354;50.194;7.690;2023-04-24T03:16:45;9.70;99.90
18450;DHT22;9354;50.194;7.690;2023-04-24T03:19:13;9.70;99.90
18450;DHT22;9354;50.194;7.690;2023-04-24T03:21:40;9.70;99.90
18450;DHT22;9354;50.194;7.690;2023-04-24T03:24:09;9.60;99.90
18450;DHT22;9354;50.194;7.690;2023-04-24T03:26:36;9.60;99.90
18450;DHT22;9354;50.194;7.690;2023-04-24T03:29:04;9.50;99.90
18450;DHT22;9354;50.194;7.690;2023-04-24T03:31:31;9.50;99.90
18450;DHT22;9354;50.194;7.690;2023-04-24T03:33:59;9.50;99.90
18450;DHT22;9354;50.194;7.690;2023-04-24T03:36:26;9.40;99.90
18450;DHT22;9354;50.194;7.690;2023-04-24T03:38:53;9.40;99.90
18450;DHT22;9354;50.194;7.690;2023-04-24T03:41:22;9.40;99.90
18450;DHT22;9354;50.194;7.690;2023-04-24T03:43:50;9.30;99.90
18450;DHT22;9354;50.194;7.690;2023-04-24T03:46:17;9.30;99.90
18450;DHT22;9354;50.194;7.690;2023-04-24T03:48:44;9.30;99.90
18450;DHT22;9354;50.194;7.690;2023-04-24T03:51:12;9.30;99.90
18450;DHT22;9354;50.194;7.690;2023-04-24T03:53:39;9.20;99.90
18450;DHT22;9354;50.194;7.690;2023-04-24T03:56:07;9.20;99.90
18450;DHT22;9354;50.194;7.690;2023-04-24T03:58:36;9.20;99.90
18450;DHT22;9354;50.194;7.690;2023-04-24T04:01:03;9.20;99.90
18450;DHT22;9354;50.194;7.690;2023-04-24T04:03:31;9.20;99.90
18450;DHT22;9354;50.194;7.690;2023-04-24T04:05:59;9.10;99.90
18450;DHT22;9354;50.194;7.690;2023-04-24T04:08:26;9.20;99.90
18450;DHT22;9354;50.194;7.690;2023-04-24T04:10:55;9.10;99.90
18450;DHT22;9354;50.194;7.690;2023-04-24T04:13:23;9.10;99.90
18450;DHT22;9354;50.194;7.690;2023-04-24T04:15:51;9.10;99.90
18450;DHT22;9354;50.194;7.690;2023-04-24T04:18:19;9.10;99.90
18450;DHT22;9354;50.194;7.690;2023-04-24T04:20:46;9.00;99.90
18450;DHT22;9354;50.194;7.690;2023-04-24T04:23:13;9.00;99.90
18450;DHT22;9354;50.194;7.690;2023-04-24T04:25:41;9.00;99.90
18450;DHT22;9354;50.194;7.690;2023-04-24T04:28:08;8.90;99.90
18450;DHT22;9354;50.194;7.690;2023-04-24T04:30:36;8.90;99.90
18450;DHT22;9354;50.194;7.690;2023-04-24T04:33:05;8.80;99.90
18450;DHT22;9354;50.194;7.690;2023-04-24T04:35:34;8.80;99.90
18450;DHT22;9354;50.194;7.690;2023-04-24T04:38:02;8.80;99.90
18450;DHT22;9354;50.194;7.690;2023-04-24T04:40:30;8.80;99.90
18450;DHT22;9354;50.194;7.690;2023-04-24T04:42:58;8.80;99.90
18450;DHT22;9354;50.194;7.690;2023-04-24T04:45:25;8.80;99.90
18450;DHT22;9354;50.194;7.690;2023-04-24T04:47:52;8.80;99.90
18450;DHT22;9354;50.194;7.690;2023-04-24T04:50:22;8.80;99.90
18450;DHT22;9354;50.194;7.690;2023-04-24T04:52:50;8.80;99.90
18450;DHT22;9354;50.194;7.690;2023-04-24T04:55:17;8.80;99.90
18450;DHT22;9354;50.194;7.690;2023-04-24T04:57:45;8.80;99.90
18450;DHT22;9354;50.194;7.690;2023-04-24T05:00:13;8.80;99.90
18450;DHT22;9354;50.194;7.690;2023-04-24T05:02:41;8.70;99.90
18450;DHT22;9354;50.194;7.690;2023-04-24T05:05:09;8.80;99.90
18450;DHT22;9354;50.194;7.690;2023-04-24T05:07:37;8.80;99.90
18450;DHT22;9354;50.194;7.690;2023-04-24T05:10:06;8.80;99.90
18450;DHT22;9354;50.194;7.690;2023-04-24T05:12:33;8.80;99.90
18450;DHT22;9354;50.194;7.690;2023-04-24T05:15:01;8.80;99.90
18450;DHT22;9354;50.194;7.690;2023-04-24T05:17:28;8.80;99.90
18450;DHT22;9354;50.194;7.690;2023-04-24T05:19:56;8.80;99.90
18450;DHT22;9354;50.194;7.690;2023-04-24T05:22:23;8.80;99.90
18450;DHT22;9354;50.194;7.690;2023-04-24T05:24:52;8.80;99.90
18450;DHT22;9354;50.194;7.690;2023-04-24T05:27:20;8.80;99.90
18450;DHT22;9354;50.194;7.690;2023-04-24T05:29:47;8.80;99.90
18450;DHT22;9354;50.194;7.690;2023-04-24T05:32:15;8.80;99.90
18450;DHT22;9354;50.194;7.690;2023-04-24T05:34:42;8.90;99.90
18450;DHT22;9354;50.194;7.690;2023-04-24T05:37:10;9.00;99.90
18450;DHT22;9354;50.194;7.690;2023-04-24T05:39:37;9.00;99.90
18450;DHT22;9354;50.194;7.690;2023-04-24T05:42:06;9.10;99.90
18450;DHT22;9354;50.194;7.690;2023-04-24T05:44:33;9.10;99.90
18450;DHT22;9354;50.194;7.690;2023-04-24T05:47:01;9.10;99.90
18450;DHT22;9354;50.194;7.690;2023-04-24T05:49:28;9.20;99.90
18450;DHT22;9354;50.194;7.690;2023-04-24T05:51:56;9.20;99.90
18450;DHT22;9354;50.194;7.690;2023-04-24T05:54:24;9.30;99.90
18450;DHT22;9354;50.194;7.690;2023-04-24T05:56:51;9.20;99.90
18450;DHT22;9354;50.194;7.690;2023-04-24T05:59:21;9.10;99.90
18450;DHT22;9354;50.194;7.690;2023-04-24T06:01:49;9.00;99.90
18450;DHT22;9354;50.194;7.690;2023-04-24T06:04:16;9.00;99.90
18450;DHT22;9354;50.194;7.690;2023-04-24T06:06:44;9.00;99.90
18450;DHT22;9354;50.194;7.690;2023-04-24T06:09:11;9.00;99.90
18450;DHT22;9354;50.194;7.690;2023-04-24T06:11:39;9.10;99.90
18450;DHT22;9354;50.194;7.690;2023-04-24T06:14:06;9.10;99.90
18450;DHT22;9354;50.194;7.690;2023-04-24T06:16:35;9.10;99.90
18450;DHT22;9354;50.194;7.690;2023-04-24T06:19:02;9.10;99.90
18450;DHT22;9354;50.194;7.690;2023-04-24T06:21:30;9.10;99.90
18450;DHT22;9354;50.194;7.690;2023-04-24T06:23:57;9.10;99.90
18450;DHT22;9354;50.194;7.690;2023-04-24T06:26:24;9.20;99.90
18450;DHT22;9354;50.194;7.690;2023-04-24T06:28:52;9.10;99.90
18450;DHT22;9354;50.194;7.690;2023-04-24T06:31:20;9.10;99.90
18450;DHT22;9354;50.194;7.690;2023-04-24T06:33:49;9.20;99.90
18450;DHT22;9354;50.194;7.690;2023-04-24T06:36:17;9.20;99.90
18450;DHT22;9354;50.194;7.690;2023-04-24T06:38:44;9.20;99.90
18450;DHT22;9354;50.194;7.690;2023-04-24T06:41:12;9.30;99.90
18450;DHT22;9354;50.194;7.690;2023-04-24T06:43:39;9.30;99.90
18450;DHT22;9354;50.194;7.690;2023-04-24T06:46:07;9.40;99.90
18450;DHT22;9354;50.194;7.690;2023-04-24T06:48:35;9.40;99.90
18450;DHT22;9354;50.194;7.690;2023-04-24T06:51:03;9.40;99.90
18450;DHT22;9354;50.194;7.690;2023-04-24T06:53:31;9.50;99.90
18450;DHT22;9354;50.194;7.690;2023-04-24T06:55:59;9.50;99.90
18450;DHT22;9354;50.194;7.690;2023-04-24T06:58:26;9.60;99.90
18450;DHT22;9354;50.194;7.690;2023-04-24T07:00:54;9.70;99.90
18450;DHT22;9354;50.194;7.690;2023-04-24T07:03:21;9.80;99.90
18450;DHT22;9354;50.194;7.690;2023-04-24T07:05:48;9.80;99.90
18450;DHT22;9354;50.194;7.690;2023-04-24T07:08:18;9.80;99.90
18450;DHT22;9354;50.194;7.690;2023-04-24T07:10:47;9.80;99.90
18450;DHT22;9354;50.194;7.690;2023-04-24T07:13:14;9.90;99.90
18450;DHT22;9354;50.194;7.690;2023-04-24T07:15:41;10.00;99.90
18450;DHT22;9354;50.194;7.690;2023-04-24T07:18:09;9.90;99.90
18450;DHT22;9354;50.194;7.690;2023-04-24T07:20:37;9.90;99.90
18450;DHT22;9354;50.194;7.690;2023-04-24T07:23:04;9.80;99.90
18450;DHT22;9354;50.194;7.690;2023-04-24T07:25:33;9.70;99.90
18450;DHT22;9354;50.194;7.690;2023-04-24T07:28:00;9.80;99.90
18450;DHT22;9354;50.194;7.690;2023-04-24T07:30:28;9.70;99.90
18450;DHT22;9354;50.194;7.690;2023-04-24T07:32:56;9.70;99.90
18450;DHT22;9354;50.194;7.690;2023-04-24T07:35:23;9.60;99.90
18450;DHT22;9354;50.194;7.690;2023-04-24T07:37:51;9.50;99.90
18450;DHT22;9354;50.194;7.690;2023-04-24T07:40:20;9.50;99.90
18450;DHT22;9354;50.194;7.690;2023-04-24T07:42:48;9.50;99.90
18450;DHT22;9354;50.194;7.690;2023-04-24T07:45:16;9.50;99.90
18450;DHT22;9354;50.194;7.690;2023-04-24T07:47:44;9.50;99.90
18450;DHT22;9354;50.194;7.690;2023-04-24T07:50:11;9.50;99.90
18450;DHT22;9354;50.194;7.690;2023-04-24T07:52:39;9.50;99.90
18450;DHT22;9354;50.194;7.690;2023-04-24T07:55:07;9.50;99.90
18450;DHT22;9354;50.194;7.690;2023-04-24T07:57:34;9.50;99.90
18450;DHT22;9354;50.194;7.690;2023-04-24T08:00:07;9.50;99.90
18450;DHT22;9354;50.194;7.690;2023-04-24T08:02:35;9.60;99.90
18450;DHT22;9354;50.194;7.690;2023-04-24T08:05:02;9.60;99.90
18450;DHT22;9354;50.194;7.690;2023-04-24T08:07:30;9.60;99.90
18450;DHT22;9354;50.194;7.690;2023-04-24T08:09:58;9.60;99.90
18450;DHT22;9354;50.194;7.690;2023-04-24T08:12:27;9.70;99.90
18450;DHT22;9354;50.194;7.690;2023-04-24T08:14:55;9.70;99.90
18450;DHT22;9354;50.194;7.690;2023-04-24T08:17:24;9.70;99.90
18450;DHT22;9354;50.194;7.690;2023-04-24T08:19:51;9.70;99.90
18450;DHT22;9354;50.194;7.690;2023-04-24T08:22:25;9.70;99.90
18450;DHT22;9354;50.194;7.690;2023-04-24T08:24:52;9.70;99.90
18450;DHT22;9354;50.194;7.690;2023-04-24T08:27:20;9.70;99.90
18450;DHT22;9354;50.194;7.690;2023-04-24T08:29:47;9.70;99.90
18450;DHT22;9354;50.194;7.690;2023-04-24T08:32:14;9.80;99.90
18450;DHT22;9354;50.194;7.690;2023-04-24T08:34:43;9.80;99.90
18450;DHT22;9354;50.194;7.690;2023-04-24T08:37:10;9.80;99.90
18450;DHT22;9354;50.194;7.690;2023-04-24T08:39:38;9.80;99.90
18450;DHT22;9354;50.194;7.690;2023-04-24T08:42:06;9.80;99.90
18450;DHT22;9354;50.194;7.690;2023-04-24T08:44:34;9.80;99.90
18450;DHT22;9354;50.194;7.690;2023-04-24T08:47:03;9.90;99.90
18450;DHT22;9354;50.194;7.690;2023-04-24T08:49:31;9.90;99.90
18450;DHT22;9354;50.194;7.690;2023-04-24T08:52:00;9.90;99.90
18450;DHT22;9354;50.194;7.690;2023-04-24T08:54:29;9.90;99.90
18450;DHT22;9354;50.194;7.690;2023-04-24T08:56:59;9.90;99.90
18450;DHT22;9354;50.194;7.690;2023-04-24T08:59:28;9.80;99.90
18450;DHT22;9354;50.194;7.690;2023-04-24T09:01:56;9.80;99.90
18450;DHT22;9354;50.194;7.690;2023-04-24T09:04:24;9.80;99.90
18450;DHT22;9354;50.194;7.690;2023-04-24T09:06:55;9.80;99.90
18450;DHT22;9354;50.194;7.690;2023-04-24T09:09:25;9.80;99.90
18450;DHT22;9354;50.194;7.690;2023-04-24T09:11:53;9.80;99.90
18450;DHT22;9354;50.194;7.690;2023-04-24T09:14:21;9.80;99.90
18450;DHT22;9354;50.194;7.690;2023-04-24T09:16:49;9.70;99.90
18450;DHT22;9354;50.194;7.690;2023-04-24T09:19:17;9.70;99.90
18450;DHT22;9354;50.194;7.690;2023-04-24T09:21:46;9.70;99.90
18450;DHT22;9354;50.194;7.690;2023-04-24T09:24:17;9.70;99.90
18450;DHT22;9354;50.194;7.690;2023-04-24T09:26:48;9.70;99.90
18450;DHT22;9354;50.194;7.690;2023-04-24T09:29:16;9.70;99.90
18450;DHT22;9354;50.194;7.690;2023-04-24T09:31:45;9.70;99.90
18450;DHT22;9354;50.194;7.690;2023-04-24T09:34:12;9.80;99.90
18450;DHT22;9354;50.194;7.690;2023-04-24T09:36:42;9.90;99.90
18450;DHT22;9354;50.194;7.690;2023-04-24T09:39:11;9.90;99.90
18450;DHT22;9354;50.194;7.690;2023-04-24T09:41:44;9.90;99.90
18450;DHT22;9354;50.194;7.690;2023-04-24T09:44:15;10.00;99.90
18450;DHT22;9354;50.194;7.690;2023-04-24T09:46:43;10.10;99.90
18450;DHT22;9354;50.194;7.690;2023-04-24T09:49:13;10.30;99.90
18450;DHT22;9354;50.194;7.690;2023-04-24T09:51:41;10.30;99.90
18450;DHT22;9354;50.194;7.690;2023-04-24T09:54:14;10.40;99.90
18450;DHT22;9354;50.194;7.690;2023-04-24T09:56:44;10.50;99.90
18450;DHT22;9354;50.194;7.690;2023-04-24T09:59:14;10.60;99.90
18450;DHT22;9354;50.194;7.690;2023-04-24T10:01:41;10.60;99.90
18450;DHT22;9354;50.194;7.690;2023-04-24T10:04:17;10.60;99.90
18450;DHT22;9354;50.194;7.690;2023-04-24T10:06:46;10.60;99.90
18450;DHT22;9354;50.194;7.690;2023-04-24T10:09:15;10.60;99.90
18450;DHT22;9354;50.194;7.690;2023-04-24T10:11:43;10.70;99.90
18450;DHT22;9354;50.194;7.690;2023-04-24T10:14:14;10.80;99.90
18450;DHT22;9354;50.194;7.690;2023-04-24T10:16:43;10.80;99.90
18450;DHT22;9354;50.194;7.690;2023-04-24T10:19:13;10.80;99.90
18450;DHT22;9354;50.194;7.690;2023-04-24T10:21:42;10.90;99.90
18450;DHT22;9354;50.194;7.690;2023-04-24T10:24:12;10.90;99.90
18450;DHT22;9354;50.194;7.690;2023-04-24T10:26:40;10.90;99.90
18450;DHT22;9354;50.194;7.690;2023-04-24T10:29:08;10.90;99.90
18450;DHT22;9354;50.194;7.690;2023-04-24T10:31:40;10.80;99.90
18450;DHT22;9354;50.194;7.690;2023-04-24T10:34:09;10.80;99.90
18450;DHT22;9354;50.194;7.690;2023-04-24T10:36:40;10.80;99.90
18450;DHT22;9354;50.194;7.690;2023-04-24T10:39:12;10.80;99.90
18450;DHT22;9354;50.194;7.690;2023-04-24T10:41:40;10.80;99.90
18450;DHT22;9354;50.194;7.690;2023-04-24T10:44:09;10.80;99.90
18450;DHT22;9354;50.194;7.690;2023-04-24T10:46:38;10.90;99.90
18450;DHT22;9354;50.194;7.690;2023-04-24T10:49:07;11.00;99.90
18450;DHT22;9354;50.194;7.690;2023-04-24T10:51:48;11.10;99.90
18450;DHT22;9354;50.194;7.690;2023-04-24T10:54:26;11.10;99.90
18450;DHT22;9354;50.194;7.690;2023-04-24T10:57:25;11.00;99.90
18450;DHT22;9354;50.194;7.690;2023-04-24T11:00:10;10.90;99.90
18450;DHT22;9354;50.194;7.690;2023-04-24T11:02:41;10.80;99.90
18450;DHT22;9354;50.194;7.690;2023-04-24T11:05:15;10.70;99.90
18450;DHT22;9354;50.194;7.690;2023-04-24T11:08:11;10.60;99.90
18450;DHT22;9354;50.194;7.690;2023-04-24T11:10:44;10.60;99.90
18450;DHT22;9354;50.194;7.690;2023-04-24T11:13:14;10.60;99.90
18450;DHT22;9354;50.194;7.690;2023-04-24T11:15:42;10.60;99.90
18450;DHT22;9354;50.194;7.690;2023-04-24T11:18:14;10.70;99.90
18450;DHT22;9354;50.194;7.690;2023-04-24T11:20:43;10.70;99.90
18450;DHT22;9354;50.194;7.690;2023-04-24T11:23:12;10.70;99.90
18450;DHT22;9354;50.194;7.690;2023-04-24T11:25:41;10.70;99.90
18450;DHT22;9354;50.194;7.690;2023-04-24T11:28:14;10.70;99.90
18450;DHT22;9354;50.194;7.690;2023-04-24T11:30:42;10.70;99.90
18450;DHT22;9354;50.194;7.690;2023-04-24T11:33:10;10.70;99.90
18450;DHT22;9354;50.194;7.690;2023-04-24T11:35:40;10.60;99.90
18450;DHT22;9354;50.194;7.690;2023-04-24T11:38:10;10.60;99.90
18450;DHT22;9354;50.194;7.690;2023-04-24T11:40:37;10.50;99.90
18450;DHT22;9354;50.194;7.690;2023-04-24T11:43:05;10.50;99.90
18450;DHT22;9354;50.194;7.690;2023-04-24T11:45:32;10.50;99.90
18450;DHT22;9354;50.194;7.690;2023-04-24T11:48:00;10.50;99.90
18450;DHT22;9354;50.194;7.690;2023-04-24T11:50:27;10.50;99.90
18450;DHT22;9354;50.194;7.690;2023-04-24T11:52:57;10.60;99.90
18450;DHT22;9354;50.194;7.690;2023-04-24T11:55:27;10.70;99.90
18450;DHT22;9354;50.194;7.690;2023-04-24T11:57:56;10.80;99.90
18450;DHT22;9354;50.194;7.690;2023-04-24T12:00:25;10.90;99.90
18450;DHT22;9354;50.194;7.690;2023-04-24T12:03:04;11.00;99.90
18450;DHT22;9354;50.194;7.690;2023-04-24T12:05:32;11.20;99.90
18450;DHT22;9354;50.194;7.690;2023-04-24T12:08:01;11.40;99.90
18450;DHT22;9354;50.194;7.690;2023-04-24T12:10:30;11.40;99.90
18450;DHT22;9354;50.194;7.690;2023-04-24T12:12:58;11.40;99.90
18450;DHT22;9354;50.194;7.690;2023-04-24T12:15:27;11.30;99.90
18450;DHT22;9354;50.194;7.690;2023-04-24T12:17:55;11.10;99.90
18450;DHT22;9354;50.194;7.690;2023-04-24T12:20:25;10.80;99.90
18450;DHT22;9354;50.194;7.690;2023-04-24T12:22:55;10.60;99.90
18450;DHT22;9354;50.194;7.690;2023-04-24T12:25:25;10.50;99.90
18450;DHT22;9354;50.194;7.690;2023-04-24T12:27:54;10.50;99.90
18450;DHT22;9354;50.194;7.690;2023-04-24T12:30:27;10.60;99.90
18450;DHT22;9354;50.194;7.690;2023-04-24T12:32:57;10.80;99.90
18450;DHT22;9354;50.194;7.690;2023-04-24T12:35:26;11.10;99.90
18450;DHT22;9354;50.194;7.690;2023-04-24T12:37:54;11.40;99.90
18450;DHT22;9354;50.194;7.690;2023-04-24T12:40:26;11.70;99.90
18450;DHT22;9354;50.194;7.690;2023-04-24T12:42:55;12.00;99.90
18450;DHT22;9354;50.194;7.690;2023-04-24T12:45:22;12.30;99.90
18450;DHT22;9354;50.194;7.690;2023-04-24T12:47:51;12.90;99.90
18450;DHT22;9354;50.194;7.690;2023-04-24T12:50:18;13.10;99.90
18450;DHT22;9354;50.194;7.690;2023-04-24T12:52:46;13.30;99.90
18450;DHT22;9354;50.194;7.690;2023-04-24T12:55:13;13.20;99.90
18450;DHT22;9354;50.194;7.690;2023-04-24T12:57:42;13.00;99.90
18450;DHT22;9354;50.194;7.690;2023-04-24T13:00:10;12.80;99.90
18450;DHT22;9354;50.194;7.690;2023-04-24T13:02:37;12.60;99.90
18450;DHT22;9354;50.194;7.690;2023-04-24T13:05:06;12.50;99.90
18450;DHT22;9354;50.194;7.690;2023-04-24T13:07:33;12.40;99.90
18450;DHT22;9354;50.194;7.690;2023-04-24T13:10:01;12.50;99.90
18450;DHT22;9354;50.194;7.690;2023-04-24T13:12:28;12.70;99.90
18450;DHT22;9354;50.194;7.690;2023-04-24T13:14:58;12.60;99.90
18450;DHT22;9354;50.194;7.690;2023-04-24T13:17:26;12.50;99.90
18450;DHT22;9354;50.194;7.690;2023-04-24T13:19:54;12.40;99.90
18450;DHT22;9354;50.194;7.690;2023-04-24T13:22:22;12.30;99.90
18450;DHT22;9354;50.194;7.690;2023-04-24T13:24:49;12.20;99.90
18450;DHT22;9354;50.194;7.690;2023-04-24T13:27:17;12.10;99.90
18450;DHT22;9354;50.194;7.690;2023-04-24T13:29:45;12.10;99.90
18450;DHT22;9354;50.194;7.690;2023-04-24T13:32:14;12.00;99.90
18450;DHT22;9354;50.194;7.690;2023-04-24T13:34:41;11.90;99.90
18450;DHT22;9354;50.194;7.690;2023-04-24T13:37:09;11.90;99.90
18450;DHT22;9354;50.194;7.690;2023-04-24T13:39:36;11.90;99.90
18450;DHT22;9354;50.194;7.690;2023-04-24T13:42:04;11.90;99.90
18450;DHT22;9354;50.194;7.690;2023-04-24T13:44:31;12.00;99.90
18450;DHT22;9354;50.194;7.690;2023-04-24T13:46:59;12.10;99.90
18450;DHT22;9354;50.194;7.690;2023-04-24T13:49:28;12.30;99.90
18450;DHT22;9354;50.194;7.690;2023-04-24T13:51:56;12.70;99.90
18450;DHT22;9354;50.194;7.690;2023-04-24T13:54:23;12.90;99.90
18450;DHT22;9354;50.194;7.690;2023-04-24T13:56:52;12.90;99.90
18450;DHT22;9354;50.194;7.690;2023-04-24T13:59:20;12.80;99.90
18450;DHT22;9354;50.194;7.690;2023-04-24T14:01:48;12.70;99.90
18450;DHT22;9354;50.194;7.690;2023-04-24T14:04:15;12.50;99.90
18450;DHT22;9354;50.194;7.690;2023-04-24T14:06:47;12.40;99.90
18450;DHT22;9354;50.194;7.690;2023-04-24T14:09:14;12.20;99.90
18450;DHT22;9354;50.194;7.690;2023-04-24T14:11:42;12.10;99.90
18450;DHT22;9354;50.194;7.690;2023-04-24T14:14:09;12.10;99.90
18450;DHT22;9354;50.194;7.690;2023-04-24T14:16:37;12.00;99.90
18450;DHT22;9354;50.194;7.690;2023-04-24T14:19:04;11.90;99.90
18450;DHT22;9354;50.194;7.690;2023-04-24T14:21:32;11.80;99.90
18450;DHT22;9354;50.194;7.690;2023-04-24T14:24:01;11.70;99.90
18450;DHT22;9354;50.194;7.690;2023-04-24T14:26:29;11.70;99.90
18450;DHT22;9354;50.194;7.690;2023-04-24T14:28:56;11.70;99.90
18450;DHT22;9354;50.194;7.690;2023-04-24T14:31:24;11.60;99.90
18450;DHT22;9354;50.194;7.690;2023-04-24T14:33:52;11.60;99.90
18450;DHT22;9354;50.194;7.690;2023-04-24T14:36:19;11.50;99.90
18450;DHT22;9354;50.194;7.690;2023-04-24T14:38:47;11.50;99.90
18450;DHT22;9354;50.194;7.690;2023-04-24T14:41:15;11.40;99.90
18450;DHT22;9354;50.194;7.690;2023-04-24T14:43:43;11.30;99.90
18450;DHT22;9354;50.194;7.690;2023-04-24T14:46:10;11.30;99.90
18450;DHT22;9354;50.194;7.690;2023-04-24T14:48:38;11.20;99.90
18450;DHT22;9354;50.194;7.690;2023-04-24T14:51:05;11.20;99.90
18450;DHT22;9354;50.194;7.690;2023-04-24T14:53:33;11.20;99.90
18450;DHT22;9354;50.194;7.690;2023-04-24T14:56:01;11.50;99.90
18450;DHT22;9354;50.194;7.690;2023-04-24T14:58:30;11.90;99.90
18450;DHT22;9354;50.194;7.690;2023-04-24T15:00:57;12.20;99.90
18450;DHT22;9354;50.194;7.690;2023-04-24T15:03:24;12.50;99.90
18450;DHT22;9354;50.194;7.690;2023-04-24T15:05:52;12.80;99.90
18450;DHT22;9354;50.194;7.690;2023-04-24T15:08:20;13.00;99.90
18450;DHT22;9354;50.194;7.690;2023-04-24T15:10:47;13.20;99.90
18450;DHT22;9354;50.194;7.690;2023-04-24T15:13:15;13.30;99.90
18450;DHT22;9354;50.194;7.690;2023-04-24T15:15:46;13.50;99.90
18450;DHT22;9354;50.194;7.690;2023-04-24T15:18:13;13.50;99.90
18450;DHT22;9354;50.194;7.690;2023-04-24T15:20:41;13.50;99.90
18450;DHT22;9354;50.194;7.690;2023-04-24T15:23:09;13.50;99.90
18450;DHT22;9354;50.194;7.690;2023-04-24T15:25:36;13.40;99.90
18450;DHT22;9354;50.194;7.690;2023-04-24T15:28:04;13.30;99.90
18450;DHT22;9354;50.194;7.690;2023-04-24T15:30:32;13.20;99.90
18450;DHT22;9354;50.194;7.690;2023-04-24T15:33:01;13.00;99.90
18450;DHT22;9354;50.194;7.690;2023-04-24T15:35:29;12.90;99.90
18450;DHT22;9354;50.194;7.690;2023-04-24T15:37:56;12.80;99.90
18450;DHT22;9354;50.194;7.690;2023-04-24T15:40:24;12.70;99.90
18450;DHT22;9354;50.194;7.690;2023-04-24T15:42:51;12.60;99.90
18450;DHT22;9354;50.194;7.690;2023-04-24T15:45:19;12.50;99.90
18450;DHT22;9354;50.194;7.690;2023-04-24T15:47:47;12.40;99.90
18450;DHT22;9354;50.194;7.690;2023-04-24T15:50:16;12.30;99.90
18450;DHT22;9354;50.194;7.690;2023-04-24T15:52:44;12.30;99.90
18450;DHT22;9354;50.194;7.690;2023-04-24T15:55:12;12.30;99.90
18450;DHT22;9354;50.194;7.690;2023-04-24T15:57:39;12.30;99.90
18450;DHT22;9354;50.194;7.690;2023-04-24T16:00:08;12.30;99.90